sensor_id;sensor_type;location;lat;lon;timestamp;P1;durP1;ratioP1;P2;durP2;ratioP2
32748;SDS011;19119;52.474;13.710;2022-08-21T00:01:03;18.80;;;11.80;;
32748;SDS011;19119;52.474;13.710;2022-08-21T00:03:31;16.42;;;11.70;;
32748;SDS011;19119;52.474;13.710;2022-08-21T00:05:57;15.38;;;11.27;;
32748;SDS011;19119;52.474;13.710;2022-08-21T00:08:22;20.38;;;11.95;;
32748;SDS011;19119;52.474;13.710;2022-08-21T00:10:48;18.55;;;11.88;;
32748;SDS011;19119;52.474;13.710;2022-08-21T00:13:15;17.30;;;12.10;;
32748;SDS011;19119;52.474;13.710;2022-08-21T00:15:42;22.23;;;11.95;;
32748;SDS011;19119;52.474;13.710;2022-08-21T00:18:08;18.42;;;11.82;;
32748;SDS011;19119;52.474;13.710;2022-08-21T00:20:36;18.75;;;11.98;;
32748;SDS011;19119;52.474;13.710;2022-08-21T00:23:03;17.20;;;11.95;;
32748;SDS011;19119;52.474;13.710;2022-08-21T00:25:29;16.20;;;12.32;;
32748;SDS011;19119;52.474;13.710;2022-08-21T00:27:55;21.15;;;11.13;;
32748;SDS011;19119;52.474;13.710;2022-08-21T00:30:21;20.00;;;12.63;;
32748;SDS011;19119;52.474;13.710;2022-08-21T00:32:49;19.95;;;12.65;;
32748;SDS011;19119;52.474;13.710;2022-08-21T00:35:16;22.52;;;13.25;;
32748;SDS011;19119;52.474;13.710;2022-08-21T00:37:43;22.88;;;13.05;;
32748;SDS011;19119;52.474;13.710;2022-08-21T00:40:11;17.65;;;11.45;;
32748;SDS011;19119;52.474;13.710;2022-08-21T00:42:38;18.80;;;11.98;;
32748;SDS011;19119;52.474;13.710;2022-08-21T00:45:05;17.42;;;12.93;;
32748;SDS011;19119;52.474;13.710;2022-08-21T00:47:33;19.90;;;11.77;;
32748;SDS011;19119;52.474;13.710;2022-08-21T00:49:59;18.30;;;11.82;;
32748;SDS011;19119;52.474;13.710;2022-08-21T00:52:26;19.67;;;11.90;;
32748;SDS011;19119;52.474;13.710;2022-08-21T00:54:55;19.35;;;11.57;;
32748;SDS011;19119;52.474;13.710;2022-08-21T00:57:24;18.52;;;10.55;;
32748;SDS011;19119;52.474;13.710;2022-08-21T00:59:54;18.00;;;11.93;;
32748;SDS011;19119;52.474;13.710;2022-08-21T01:02:23;15.55;;;10.65;;
32748;SDS011;19119;52.474;13.710;2022-08-21T01:04:48;15.63;;;10.77;;
32748;SDS011;19119;52.474;13.710;2022-08-21T01:07:14;17.17;;;11.05;;
32748;SDS011;19119;52.474;13.710;2022-08-21T01:09:41;11.60;;;9.60;;
32748;SDS011;19119;52.474;13.710;2022-08-21T01:12:08;14.88;;;10.40;;
32748;SDS011;19119;52.474;13.710;2022-08-21T01:14:34;18.42;;;10.85;;
32748;SDS011;19119;52.474;13.710;2022-08-21T01:17:00;16.02;;;10.00;;
32748;SDS011;19119;52.474;13.710;2022-08-21T01:19:28;15.13;;;10.23;;
32748;SDS011;19119;52.474;13.710;2022-08-21T01:21:55;14.18;;;8.95;;
32748;SDS011;19119;52.474;13.710;2022-08-21T01:24:21;12.60;;;8.13;;
32748;SDS011;19119;52.474;13.710;2022-08-21T01:26:48;12.50;;;8.65;;
32748;SDS011;19119;52.474;13.710;2022-08-21T01:32:14;12.68;;;8.55;;
32748;SDS011;19119;52.474;13.710;2022-08-21T01:34:43;14.18;;;7.95;;
32748;SDS011;19119;52.474;13.710;2022-08-21T01:37:10;15.75;;;8.07;;
32748;SDS011;19119;52.474;13.710;2022-08-21T01:39:37;12.68;;;8.18;;
32748;SDS011;19119;52.474;13.710;2022-08-21T01:42:03;15.07;;;8.52;;
32748;SDS011;19119;52.474;13.710;2022-08-21T01:44:29;11.48;;;7.43;;
32748;SDS011;19119;52.474;13.710;2022-08-21T01:46:57;15.60;;;8.10;;
32748;SDS011;19119;52.474;13.710;2022-08-21T01:49:24;12.65;;;7.50;;
32748;SDS011;19119;52.474;13.710;2022-08-21T01:51:50;14.82;;;7.82;;
32748;SDS011;19119;52.474;13.710;2022-08-21T01:54:15;11.90;;;7.72;;
32748;SDS011;19119;52.474;13.710;2022-08-21T01:56:42;12.68;;;7.28;;
32748;SDS011;19119;52.474;13.710;2022-08-21T01:59:09;14.73;;;8.50;;
32748;SDS011;19119;52.474;13.710;2022-08-21T02:01:35;12.15;;;9.38;;
32748;SDS011;19119;52.474;13.710;2022-08-21T02:04:02;13.25;;;8.82;;
32748;SDS011;19119;52.474;13.710;2022-08-21T02:06:27;11.32;;;8.43;;
32748;SDS011;19119;52.474;13.710;2022-08-21T02:08:53;12.13;;;8.93;;
32748;SDS011;19119;52.474;13.710;2022-08-21T02:11:19;11.93;;;9.05;;
32748;SDS011;19119;52.474;13.710;2022-08-21T02:13:45;15.35;;;9.15;;
32748;SDS011;19119;52.474;13.710;2022-08-21T02:16:11;12.00;;;8.45;;
32748;SDS011;19119;52.474;13.710;2022-08-21T02:18:37;11.52;;;8.88;;
32748;SDS011;19119;52.474;13.710;2022-08-21T02:21:03;12.70;;;8.05;;
32748;SDS011;19119;52.474;13.710;2022-08-21T02:23:29;10.25;;;7.57;;
32748;SDS011;19119;52.474;13.710;2022-08-21T02:25:56;12.90;;;8.52;;
32748;SDS011;19119;52.474;13.710;2022-08-21T02:28:23;18.60;;;9.43;;
32748;SDS011;19119;52.474;13.710;2022-08-21T02:30:49;15.63;;;8.77;;
32748;SDS011;19119;52.474;13.710;2022-08-21T02:33:15;15.93;;;8.43;;
32748;SDS011;19119;52.474;13.710;2022-08-21T02:35:42;13.18;;;8.30;;
32748;SDS011;19119;52.474;13.710;2022-08-21T02:38:10;13.80;;;8.32;;
32748;SDS011;19119;52.474;13.710;2022-08-21T02:40:38;20.27;;;8.80;;
32748;SDS011;19119;52.474;13.710;2022-08-21T02:43:06;14.90;;;8.30;;
32748;SDS011;19119;52.474;13.710;2022-08-21T02:45:32;14.70;;;7.82;;
32748;SDS011;19119;52.474;13.710;2022-08-21T02:47:59;12.25;;;8.32;;
32748;SDS011;19119;52.474;13.710;2022-08-21T02:50:32;15.80;;;7.80;;
32748;SDS011;19119;52.474;13.710;2022-08-21T02:52:59;11.73;;;7.57;;
32748;SDS011;19119;52.474;13.710;2022-08-21T02:55:26;14.02;;;7.30;;
32748;SDS011;19119;52.474;13.710;2022-08-21T02:57:54;11.55;;;6.88;;
32748;SDS011;19119;52.474;13.710;2022-08-21T03:00:22;14.25;;;7.43;;
32748;SDS011;19119;52.474;13.710;2022-08-21T03:02:50;15.95;;;7.38;;
32748;SDS011;19119;52.474;13.710;2022-08-21T03:05:15;12.32;;;7.70;;
32748;SDS011;19119;52.474;13.710;2022-08-21T03:07:42;13.43;;;6.65;;
32748;SDS011;19119;52.474;13.710;2022-08-21T03:10:09;14.07;;;6.90;;
32748;SDS011;19119;52.474;13.710;2022-08-21T03:12:35;12.05;;;6.80;;
32748;SDS011;19119;52.474;13.710;2022-08-21T03:15:06;12.10;;;6.45;;
32748;SDS011;19119;52.474;13.710;2022-08-21T03:17:33;13.03;;;5.83;;
32748;SDS011;19119;52.474;13.710;2022-08-21T03:19:59;8.57;;;5.85;;
32748;SDS011;19119;52.474;13.710;2022-08-21T03:22:25;11.10;;;6.53;;
32748;SDS011;19119;52.474;13.710;2022-08-21T03:24:52;9.45;;;6.65;;
32748;SDS011;19119;52.474;13.710;2022-08-21T03:27:18;15.80;;;6.40;;
32748;SDS011;19119;52.474;13.710;2022-08-21T03:29:44;13.18;;;6.13;;
32748;SDS011;19119;52.474;13.710;2022-08-21T03:32:09;9.82;;;7.13;;
32748;SDS011;19119;52.474;13.710;2022-08-21T03:34:38;10.32;;;6.40;;
32748;SDS011;19119;52.474;13.710;2022-08-21T03:37:05;16.08;;;7.05;;
32748;SDS011;19119;52.474;13.710;2022-08-21T03:39:32;10.70;;;6.10;;
32748;SDS011;19119;52.474;13.710;2022-08-21T03:41:58;11.02;;;6.15;;
32748;SDS011;19119;52.474;13.710;2022-08-21T03:44:24;12.70;;;6.25;;
32748;SDS011;19119;52.474;13.710;2022-08-21T03:46:53;12.18;;;6.07;;
32748;SDS011;19119;52.474;13.710;2022-08-21T03:49:19;14.98;;;6.75;;
32748;SDS011;19119;52.474;13.710;2022-08-21T03:51:45;13.45;;;6.60;;
32748;SDS011;19119;52.474;13.710;2022-08-21T03:54:10;10.85;;;6.43;;
32748;SDS011;19119;52.474;13.710;2022-08-21T03:56:36;19.25;;;6.28;;
32748;SDS011;19119;52.474;13.710;2022-08-21T03:59:01;12.02;;;6.03;;
32748;SDS011;19119;52.474;13.710;2022-08-21T04:01:28;14.75;;;6.28;;
32748;SDS011;19119;52.474;13.710;2022-08-21T04:03:53;8.27;;;6.00;;
32748;SDS011;19119;52.474;13.710;2022-08-21T04:06:19;15.65;;;6.45;;
32748;SDS011;19119;52.474;13.710;2022-08-21T04:08:45;9.43;;;6.47;;
32748;SDS011;19119;52.474;13.710;2022-08-21T04:11:10;13.27;;;7.18;;
32748;SDS011;19119;52.474;13.710;2022-08-21T04:13:36;15.27;;;6.72;;
32748;SDS011;19119;52.474;13.710;2022-08-21T04:16:03;11.48;;;6.25;;
32748;SDS011;19119;52.474;13.710;2022-08-21T04:18:29;11.80;;;6.82;;
32748;SDS011;19119;52.474;13.710;2022-08-21T04:20:55;14.70;;;6.13;;
32748;SDS011;19119;52.474;13.710;2022-08-21T04:23:23;17.45;;;6.90;;
32748;SDS011;19119;52.474;13.710;2022-08-21T04:25:49;12.60;;;5.85;;
32748;SDS011;19119;52.474;13.710;2022-08-21T04:28:15;14.60;;;6.78;;
32748;SDS011;19119;52.474;13.710;2022-08-21T04:30:41;10.45;;;5.88;;
32748;SDS011;19119;52.474;13.710;2022-08-21T04:33:06;12.50;;;6.05;;
32748;SDS011;19119;52.474;13.710;2022-08-21T04:35:32;8.68;;;5.80;;
32748;SDS011;19119;52.474;13.710;2022-08-21T04:37:58;8.35;;;5.72;;
32748;SDS011;19119;52.474;13.710;2022-08-21T04:40:24;10.32;;;5.80;;
32748;SDS011;19119;52.474;13.710;2022-08-21T04:42:52;11.30;;;5.53;;
32748;SDS011;19119;52.474;13.710;2022-08-21T04:45:26;9.38;;;5.55;;
32748;SDS011;19119;52.474;13.710;2022-08-21T04:47:55;11.45;;;6.10;;
32748;SDS011;19119;52.474;13.710;2022-08-21T04:50:25;13.80;;;5.97;;
32748;SDS011;19119;52.474;13.710;2022-08-21T04:52:54;10.52;;;6.15;;
32748;SDS011;19119;52.474;13.710;2022-08-21T04:55:20;10.60;;;5.00;;
32748;SDS011;19119;52.474;13.710;2022-08-21T04:57:47;13.65;;;6.25;;
32748;SDS011;19119;52.474;13.710;2022-08-21T05:00:18;9.32;;;5.53;;
32748;SDS011;19119;52.474;13.710;2022-08-21T05:02:44;10.55;;;5.80;;
32748;SDS011;19119;52.474;13.710;2022-08-21T05:05:12;13.05;;;5.28;;
32748;SDS011;19119;52.474;13.710;2022-08-21T05:07:38;9.18;;;5.28;;
32748;SDS011;19119;52.474;13.710;2022-08-21T05:10:04;13.88;;;5.43;;
32748;SDS011;19119;52.474;13.710;2022-08-21T05:12:32;9.57;;;5.20;;
32748;SDS011;19119;52.474;13.710;2022-08-21T05:14:59;11.50;;;5.18;;
32748;SDS011;19119;52.474;13.710;2022-08-21T05:17:25;10.48;;;5.18;;
32748;SDS011;19119;52.474;13.710;2022-08-21T05:19:50;8.93;;;4.82;;
32748;SDS011;19119;52.474;13.710;2022-08-21T05:22:23;8.18;;;5.03;;
32748;SDS011;19119;52.474;13.710;2022-08-21T05:27:15;12.48;;;4.53;;
32748;SDS011;19119;52.474;13.710;2022-08-21T05:29:41;10.00;;;4.32;;
32748;SDS011;19119;52.474;13.710;2022-08-21T05:32:08;10.18;;;4.35;;
32748;SDS011;19119;52.474;13.710;2022-08-21T05:34:35;10.73;;;5.85;;
32748;SDS011;19119;52.474;13.710;2022-08-21T05:37:01;17.52;;;4.85;;
32748;SDS011;19119;52.474;13.710;2022-08-21T05:39:27;9.55;;;4.93;;
32748;SDS011;19119;52.474;13.710;2022-08-21T05:41:53;12.35;;;5.47;;
32748;SDS011;19119;52.474;13.710;2022-08-21T05:44:18;10.95;;;4.30;;
32748;SDS011;19119;52.474;13.710;2022-08-21T05:46:44;8.32;;;4.10;;
32748;SDS011;19119;52.474;13.710;2022-08-21T05:49:10;8.82;;;4.43;;
32748;SDS011;19119;52.474;13.710;2022-08-21T05:51:36;7.93;;;4.63;;
32748;SDS011;19119;52.474;13.710;2022-08-21T05:54:02;10.75;;;4.38;;
32748;SDS011;19119;52.474;13.710;2022-08-21T05:56:28;6.22;;;3.72;;
32748;SDS011;19119;52.474;13.710;2022-08-21T05:58:53;13.73;;;4.20;;
32748;SDS011;19119;52.474;13.710;2022-08-21T06:01:20;14.68;;;4.53;;
32748;SDS011;19119;52.474;13.710;2022-08-21T06:03:46;10.52;;;5.15;;
32748;SDS011;19119;52.474;13.710;2022-08-21T06:06:11;8.35;;;4.20;;
32748;SDS011;19119;52.474;13.710;2022-08-21T06:08:37;8.40;;;4.05;;
32748;SDS011;19119;52.474;13.710;2022-08-21T06:11:02;7.57;;;4.10;;
32748;SDS011;19119;52.474;13.710;2022-08-21T06:13:30;12.15;;;4.28;;
32748;SDS011;19119;52.474;13.710;2022-08-21T06:16:11;10.55;;;3.75;;
32748;SDS011;19119;52.474;13.710;2022-08-21T06:18:38;8.48;;;3.65;;
32748;SDS011;19119;52.474;13.710;2022-08-21T06:21:05;10.30;;;4.43;;
32748;SDS011;19119;52.474;13.710;2022-08-21T06:23:32;6.82;;;3.40;;
32748;SDS011;19119;52.474;13.710;2022-08-21T06:25:59;10.00;;;3.45;;
32748;SDS011;19119;52.474;13.710;2022-08-21T06:28:26;5.72;;;3.13;;
32748;SDS011;19119;52.474;13.710;2022-08-21T06:30:51;11.85;;;3.75;;
32748;SDS011;19119;52.474;13.710;2022-08-21T06:33:17;11.18;;;3.42;;
32748;SDS011;19119;52.474;13.710;2022-08-21T06:35:42;10.98;;;4.13;;
32748;SDS011;19119;52.474;13.710;2022-08-21T06:38:08;9.27;;;3.45;;
32748;SDS011;19119;52.474;13.710;2022-08-21T06:40:34;5.82;;;3.17;;
32748;SDS011;19119;52.474;13.710;2022-08-21T06:43:07;10.18;;;3.08;;
32748;SDS011;19119;52.474;13.710;2022-08-21T06:45:35;9.02;;;3.08;;
32748;SDS011;19119;52.474;13.710;2022-08-21T06:48:01;12.10;;;3.45;;
32748;SDS011;19119;52.474;13.710;2022-08-21T06:50:28;7.35;;;2.63;;
32748;SDS011;19119;52.474;13.710;2022-08-21T06:52:58;8.55;;;3.45;;
32748;SDS011;19119;52.474;13.710;2022-08-21T06:55:32;8.20;;;2.92;;
32748;SDS011;19119;52.474;13.710;2022-08-21T06:57:58;7.78;;;2.95;;
32748;SDS011;19119;52.474;13.710;2022-08-21T07:00:24;7.30;;;3.00;;
32748;SDS011;19119;52.474;13.710;2022-08-21T07:02:50;4.90;;;2.83;;
32748;SDS011;19119;52.474;13.710;2022-08-21T07:05:16;6.47;;;2.58;;
32748;SDS011;19119;52.474;13.710;2022-08-21T07:07:42;8.88;;;2.97;;
32748;SDS011;19119;52.474;13.710;2022-08-21T07:10:07;8.57;;;2.78;;
32748;SDS011;19119;52.474;13.710;2022-08-21T07:12:33;8.63;;;2.63;;
32748;SDS011;19119;52.474;13.710;2022-08-21T07:14:59;4.55;;;2.00;;
32748;SDS011;19119;52.474;13.710;2022-08-21T07:17:24;5.60;;;2.58;;
32748;SDS011;19119;52.474;13.710;2022-08-21T07:19:50;10.15;;;2.75;;
32748;SDS011;19119;52.474;13.710;2022-08-21T07:22:16;9.80;;;2.70;;
32748;SDS011;19119;52.474;13.710;2022-08-21T07:24:44;7.05;;;2.33;;
32748;SDS011;19119;52.474;13.710;2022-08-21T07:27:10;9.73;;;2.30;;
32748;SDS011;19119;52.474;13.710;2022-08-21T07:29:35;6.25;;;1.85;;
32748;SDS011;19119;52.474;13.710;2022-08-21T07:32:02;8.95;;;1.98;;
32748;SDS011;19119;52.474;13.710;2022-08-21T07:34:28;4.85;;;2.13;;
32748;SDS011;19119;52.474;13.710;2022-08-21T07:36:53;4.78;;;2.13;;
32748;SDS011;19119;52.474;13.710;2022-08-21T07:39:19;6.10;;;2.35;;
32748;SDS011;19119;52.474;13.710;2022-08-21T07:41:44;5.90;;;2.28;;
32748;SDS011;19119;52.474;13.710;2022-08-21T07:44:10;9.77;;;1.98;;
32748;SDS011;19119;52.474;13.710;2022-08-21T07:46:35;3.20;;;1.80;;
32748;SDS011;19119;52.474;13.710;2022-08-21T07:49:01;5.25;;;1.95;;
32748;SDS011;19119;52.474;13.710;2022-08-21T07:51:27;6.53;;;2.42;;
32748;SDS011;19119;52.474;13.710;2022-08-21T07:53:54;8.25;;;2.28;;
32748;SDS011;19119;52.474;13.710;2022-08-21T07:56:21;5.80;;;2.50;;
32748;SDS011;19119;52.474;13.710;2022-08-21T07:58:47;7.10;;;2.15;;
32748;SDS011;19119;52.474;13.710;2022-08-21T08:01:12;5.45;;;1.92;;
32748;SDS011;19119;52.474;13.710;2022-08-21T08:03:38;4.57;;;1.85;;
32748;SDS011;19119;52.474;13.710;2022-08-21T08:06:04;3.45;;;1.73;;
32748;SDS011;19119;52.474;13.710;2022-08-21T08:08:32;4.38;;;1.95;;
32748;SDS011;19119;52.474;13.710;2022-08-21T08:10:58;8.93;;;2.00;;
32748;SDS011;19119;52.474;13.710;2022-08-21T08:13:24;4.95;;;1.60;;
32748;SDS011;19119;52.474;13.710;2022-08-21T08:15:50;11.27;;;2.10;;
32748;SDS011;19119;52.474;13.710;2022-08-21T08:18:16;5.30;;;1.80;;
32748;SDS011;19119;52.474;13.710;2022-08-21T08:20:41;7.07;;;2.45;;
32748;SDS011;19119;52.474;13.710;2022-08-21T08:23:09;4.80;;;1.98;;
32748;SDS011;19119;52.474;13.710;2022-08-21T08:25:36;8.60;;;2.13;;
32748;SDS011;19119;52.474;13.710;2022-08-21T08:28:01;7.45;;;1.75;;
32748;SDS011;19119;52.474;13.710;2022-08-21T08:30:29;9.23;;;2.17;;
32748;SDS011;19119;52.474;13.710;2022-08-21T08:32:54;6.32;;;2.15;;
32748;SDS011;19119;52.474;13.710;2022-08-21T08:35:21;7.60;;;1.85;;
32748;SDS011;19119;52.474;13.710;2022-08-21T08:37:47;4.07;;;1.70;;
32748;SDS011;19119;52.474;13.710;2022-08-21T08:40:14;8.10;;;1.95;;
32748;SDS011;19119;52.474;13.710;2022-08-21T08:42:47;7.47;;;1.65;;
32748;SDS011;19119;52.474;13.710;2022-08-21T08:45:16;6.00;;;1.75;;
32748;SDS011;19119;52.474;13.710;2022-08-21T08:47:48;3.42;;;1.23;;
32748;SDS011;19119;52.474;13.710;2022-08-21T08:50:28;8.25;;;1.77;;
32748;SDS011;19119;52.474;13.710;2022-08-21T08:53:10;6.13;;;1.58;;
32748;SDS011;19119;52.474;13.710;2022-08-21T08:55:41;7.32;;;1.80;;
32748;SDS011;19119;52.474;13.710;2022-08-21T08:58:14;4.60;;;1.35;;
32748;SDS011;19119;52.474;13.710;2022-08-21T09:00:45;5.38;;;1.85;;
32748;SDS011;19119;52.474;13.710;2022-08-21T09:03:14;8.65;;;1.80;;
32748;SDS011;19119;52.474;13.710;2022-08-21T09:05:45;7.03;;;1.60;;
32748;SDS011;19119;52.474;13.710;2022-08-21T09:21:55;6.63;;;1.60;;
32748;SDS011;19119;52.474;13.710;2022-08-21T09:29:37;5.60;;;1.80;;
32748;SDS011;19119;52.474;13.710;2022-08-21T09:32:09;6.57;;;1.67;;
32748;SDS011;19119;52.474;13.710;2022-08-21T09:34:54;7.97;;;1.63;;
32748;SDS011;19119;52.474;13.710;2022-08-21T09:37:25;5.50;;;1.30;;
32748;SDS011;19119;52.474;13.710;2022-08-21T09:39:57;6.25;;;1.75;;
32748;SDS011;19119;52.474;13.710;2022-08-21T09:42:30;4.18;;;1.45;;
32748;SDS011;19119;52.474;13.710;2022-08-21T09:45:09;3.47;;;1.50;;
32748;SDS011;19119;52.474;13.710;2022-08-21T09:47:35;5.10;;;1.88;;
32748;SDS011;19119;52.474;13.710;2022-08-21T09:50:09;7.50;;;1.25;;
32748;SDS011;19119;52.474;13.710;2022-08-21T09:52:42;5.82;;;1.52;;
32748;SDS011;19119;52.474;13.710;2022-08-21T09:55:17;6.45;;;1.48;;
32748;SDS011;19119;52.474;13.710;2022-08-21T09:58:13;3.88;;;1.45;;
32748;SDS011;19119;52.474;13.710;2022-08-21T10:00:40;4.68;;;1.30;;
32748;SDS011;19119;52.474;13.710;2022-08-21T10:03:19;3.97;;;1.48;;
32748;SDS011;19119;52.474;13.710;2022-08-21T10:05:50;5.97;;;1.40;;
32748;SDS011;19119;52.474;13.710;2022-08-21T10:08:19;4.57;;;1.30;;
32748;SDS011;19119;52.474;13.710;2022-08-21T10:10:45;3.33;;;1.67;;
32748;SDS011;19119;52.474;13.710;2022-08-21T10:13:20;3.65;;;1.50;;
32748;SDS011;19119;52.474;13.710;2022-08-21T10:16:06;3.55;;;1.63;;
32748;SDS011;19119;52.474;13.710;2022-08-21T10:18:41;4.15;;;1.63;;
32748;SDS011;19119;52.474;13.710;2022-08-21T10:21:39;7.03;;;1.55;;
32748;SDS011;19119;52.474;13.710;2022-08-21T10:29:49;7.95;;;1.50;;
32748;SDS011;19119;52.474;13.710;2022-08-21T10:32:23;4.50;;;1.70;;
32748;SDS011;19119;52.474;13.710;2022-08-21T10:35:10;5.10;;;2.15;;
32748;SDS011;19119;52.474;13.710;2022-08-21T10:37:42;6.65;;;2.05;;
32748;SDS011;19119;52.474;13.710;2022-08-21T10:43:05;4.78;;;2.05;;
32748;SDS011;19119;52.474;13.710;2022-08-21T10:56:35;5.88;;;1.73;;
32748;SDS011;19119;52.474;13.710;2022-08-21T10:59:07;5.22;;;2.00;;
32748;SDS011;19119;52.474;13.710;2022-08-21T11:01:44;5.10;;;1.70;;
32748;SDS011;19119;52.474;13.710;2022-08-21T11:04:21;3.53;;;1.42;;
32748;SDS011;19119;52.474;13.710;2022-08-21T11:06:59;8.73;;;1.55;;
32748;SDS011;19119;52.474;13.710;2022-08-21T11:09:29;5.45;;;1.52;;
32748;SDS011;19119;52.474;13.710;2022-08-21T11:12:00;2.85;;;1.30;;
32748;SDS011;19119;52.474;13.710;2022-08-21T11:17:22;4.35;;;1.80;;
32748;SDS011;19119;52.474;13.710;2022-08-21T11:23:25;3.78;;;1.60;;
32748;SDS011;19119;52.474;13.710;2022-08-21T11:25:45;2.40;;;1.20;;
32748;SDS011;19119;52.474;13.710;2022-08-21T11:33:41;3.90;;;1.20;;
32748;SDS011;19119;52.474;13.710;2022-08-21T11:38:39;6.43;;;1.55;;
32748;SDS011;19119;52.474;13.710;2022-08-21T11:41:23;4.93;;;1.35;;
32748;SDS011;19119;52.474;13.710;2022-08-21T11:43:54;4.47;;;1.20;;
32748;SDS011;19119;52.474;13.710;2022-08-21T11:46:31;9.30;;;2.17;;
32748;SDS011;19119;52.474;13.710;2022-08-21T11:52:21;4.72;;;1.95;;
32748;SDS011;19119;52.474;13.710;2022-08-21T11:55:05;3.97;;;1.30;;
32748;SDS011;19119;52.474;13.710;2022-08-21T11:57:46;7.25;;;1.55;;
32748;SDS011;19119;52.474;13.710;2022-08-21T12:00:24;5.57;;;1.45;;
32748;SDS011;19119;52.474;13.710;2022-08-21T12:02:58;3.55;;;1.35;;
32748;SDS011;19119;52.474;13.710;2022-08-21T12:05:33;4.40;;;1.67;;
32748;SDS011;19119;52.474;13.710;2022-08-21T12:08:08;4.35;;;1.45;;
32748;SDS011;19119;52.474;13.710;2022-08-21T12:10:46;5.68;;;1.85;;
32748;SDS011;19119;52.474;13.710;2022-08-21T12:13:23;3.65;;;1.20;;
32748;SDS011;19119;52.474;13.710;2022-08-21T12:16:04;3.92;;;1.70;;
32748;SDS011;19119;52.474;13.710;2022-08-21T12:18:31;3.78;;;1.30;;
32748;SDS011;19119;52.474;13.710;2022-08-21T12:20:59;7.70;;;1.63;;
32748;SDS011;19119;52.474;13.710;2022-08-21T12:28:50;6.80;;;1.37;;
32748;SDS011;19119;52.474;13.710;2022-08-21T12:31:19;3.95;;;1.30;;
32748;SDS011;19119;52.474;13.710;2022-08-21T12:33:51;5.50;;;1.75;;
32748;SDS011;19119;52.474;13.710;2022-08-21T12:36:21;6.53;;;1.63;;
32748;SDS011;19119;52.474;13.710;2022-08-21T12:38:52;2.83;;;1.45;;
32748;SDS011;19119;52.474;13.710;2022-08-21T12:41:26;3.35;;;1.50;;
32748;SDS011;19119;52.474;13.710;2022-08-21T12:46:37;6.35;;;1.88;;
32748;SDS011;19119;52.474;13.710;2022-08-21T12:49:36;2.70;;;1.48;;
32748;SDS011;19119;52.474;13.710;2022-08-21T12:52:24;3.83;;;1.65;;
32748;SDS011;19119;52.474;13.710;2022-08-21T12:54:55;4.15;;;1.50;;
32748;SDS011;19119;52.474;13.710;2022-08-21T12:57:21;4.97;;;1.85;;
32748;SDS011;19119;52.474;13.710;2022-08-21T12:59:56;3.72;;;1.33;;
32748;SDS011;19119;52.474;13.710;2022-08-21T13:02:26;4.93;;;1.52;;
32748;SDS011;19119;52.474;13.710;2022-08-21T13:04:54;4.25;;;1.60;;
32748;SDS011;19119;52.474;13.710;2022-08-21T13:07:28;3.72;;;1.95;;
32748;SDS011;19119;52.474;13.710;2022-08-21T13:10:00;5.80;;;1.70;;
32748;SDS011;19119;52.474;13.710;2022-08-21T13:14:57;4.18;;;1.23;;
32748;SDS011;19119;52.474;13.710;2022-08-21T13:17:25;5.57;;;2.05;;
32748;SDS011;19119;52.474;13.710;2022-08-21T13:20:39;2.35;;;1.38;;
32748;SDS011;19119;52.474;13.710;2022-08-21T13:22:52;4.10;;;1.20;;
32748;SDS011;19119;52.474;13.710;2022-08-21T13:25:19;4.68;;;1.38;;
32748;SDS011;19119;52.474;13.710;2022-08-21T13:28:00;3.53;;;1.50;;
32748;SDS011;19119;52.474;13.710;2022-08-21T13:30:34;5.78;;;1.25;;
32748;SDS011;19119;52.474;13.710;2022-08-21T13:33:04;3.05;;;1.13;;
32748;SDS011;19119;52.474;13.710;2022-08-21T13:35:34;6.68;;;1.35;;
32748;SDS011;19119;52.474;13.710;2022-08-21T13:38:11;2.45;;;1.25;;
32748;SDS011;19119;52.474;13.710;2022-08-21T13:40:44;3.72;;;1.20;;
32748;SDS011;19119;52.474;13.710;2022-08-21T13:43:14;3.63;;;1.27;;
32748;SDS011;19119;52.474;13.710;2022-08-21T13:45:44;4.53;;;1.50;;
32748;SDS011;19119;52.474;13.710;2022-08-21T13:48:14;4.20;;;1.30;;
32748;SDS011;19119;52.474;13.710;2022-08-21T13:50:40;2.75;;;1.00;;
32748;SDS011;19119;52.474;13.710;2022-08-21T13:53:07;2.10;;;1.00;;
32748;SDS011;19119;52.474;13.710;2022-08-21T13:56:09;2.55;;;0.90;;
32748;SDS011;19119;52.474;13.710;2022-08-21T13:58:50;5.47;;;1.05;;
32748;SDS011;19119;52.474;13.710;2022-08-21T14:01:28;3.83;;;1.02;;
32748;SDS011;19119;52.474;13.710;2022-08-21T14:04:01;1.75;;;0.90;;
32748;SDS011;19119;52.474;13.710;2022-08-21T14:06:47;2.63;;;0.90;;
32748;SDS011;19119;52.474;13.710;2022-08-21T14:12:02;3.25;;;1.00;;
32748;SDS011;19119;52.474;13.710;2022-08-21T14:14:41;1.98;;;0.90;;
32748;SDS011;19119;52.474;13.710;2022-08-21T14:17:09;4.80;;;1.52;;
32748;SDS011;19119;52.474;13.710;2022-08-21T14:19:39;4.35;;;1.00;;
32748;SDS011;19119;52.474;13.710;2022-08-21T14:22:21;6.03;;;1.13;;
32748;SDS011;19119;52.474;13.710;2022-08-21T14:24:48;2.92;;;0.90;;
32748;SDS011;19119;52.474;13.710;2022-08-21T14:27:16;3.53;;;1.48;;
32748;SDS011;19119;52.474;13.710;2022-08-21T14:29:42;2.67;;;1.10;;
32748;SDS011;19119;52.474;13.710;2022-08-21T14:32:34;3.17;;;0.90;;
32748;SDS011;19119;52.474;13.710;2022-08-21T14:37:26;2.72;;;0.90;;
32748;SDS011;19119;52.474;13.710;2022-08-21T14:39:52;2.13;;;0.80;;
32748;SDS011;19119;52.474;13.710;2022-08-21T14:42:18;1.83;;;0.80;;
32748;SDS011;19119;52.474;13.710;2022-08-21T14:44:43;1.85;;;0.93;;
32748;SDS011;19119;52.474;13.710;2022-08-21T14:47:09;1.50;;;0.80;;
32748;SDS011;19119;52.474;13.710;2022-08-21T14:49:35;2.47;;;0.98;;
32748;SDS011;19119;52.474;13.710;2022-08-21T14:52:00;3.15;;;1.13;;
32748;SDS011;19119;52.474;13.710;2022-08-21T14:54:27;3.30;;;0.90;;
32748;SDS011;19119;52.474;13.710;2022-08-21T14:56:54;2.45;;;0.80;;
32748;SDS011;19119;52.474;13.710;2022-08-21T14:59:20;2.40;;;1.00;;
32748;SDS011;19119;52.474;13.710;2022-08-21T15:01:46;1.83;;;0.68;;
32748;SDS011;19119;52.474;13.710;2022-08-21T15:04:12;1.65;;;0.85;;
32748;SDS011;19119;52.474;13.710;2022-08-21T15:06:37;6.45;;;1.08;;
32748;SDS011;19119;52.474;13.710;2022-08-21T15:09:03;4.10;;;1.08;;
32748;SDS011;19119;52.474;13.710;2022-08-21T15:11:30;2.75;;;0.80;;
32748;SDS011;19119;52.474;13.710;2022-08-21T15:13:57;1.90;;;0.90;;
32748;SDS011;19119;52.474;13.710;2022-08-21T15:16:26;2.63;;;1.20;;
32748;SDS011;19119;52.474;13.710;2022-08-21T15:18:53;1.92;;;0.80;;
32748;SDS011;19119;52.474;13.710;2022-08-21T15:21:19;3.08;;;1.05;;
32748;SDS011;19119;52.474;13.710;2022-08-21T15:23:45;2.70;;;0.80;;
32748;SDS011;19119;52.474;13.710;2022-08-21T15:26:10;4.88;;;1.13;;
32748;SDS011;19119;52.474;13.710;2022-08-21T15:28:36;2.75;;;0.90;;
32748;SDS011;19119;52.474;13.710;2022-08-21T15:31:03;2.60;;;0.80;;
32748;SDS011;19119;52.474;13.710;2022-08-21T15:33:29;3.00;;;1.00;;
32748;SDS011;19119;52.474;13.710;2022-08-21T15:35:56;1.65;;;0.77;;
32748;SDS011;19119;52.474;13.710;2022-08-21T15:38:22;4.90;;;0.95;;
32748;SDS011;19119;52.474;13.710;2022-08-21T15:40:48;7.18;;;0.90;;
32748;SDS011;19119;52.474;13.710;2022-08-21T15:43:56;3.30;;;0.60;;
32748;SDS011;19119;52.474;13.710;2022-08-21T15:46:08;3.33;;;1.10;;
32748;SDS011;19119;52.474;13.710;2022-08-21T15:48:37;3.88;;;1.20;;
32748;SDS011;19119;52.474;13.710;2022-08-21T15:51:02;2.08;;;1.20;;
32748;SDS011;19119;52.474;13.710;2022-08-21T15:53:28;2.25;;;1.00;;
32748;SDS011;19119;52.474;13.710;2022-08-21T15:55:53;3.38;;;1.30;;